Time;durP1;ratioP1;P1;durP2;ratioP2;P2;SDS_P1;SDS_P2;PMS_P1;PMS_P2;Temp;Humidity;BMP_temperature;BMP_pressure;BME280_temperature;BME280_humidity;BME280_pressure;Samples;Min_cycle;Max_cycle;Signal;HPM_P1;HPM_P2
2022/03/23 00:02:09;;;;;;;27.80;16.00;;;9.30;99.90;;;;;;4977319;28;20193;-86
2022/03/23 00:04:35;;;;;;;28.90;18.13;;;9.30;99.90;;;;;;4977936;28;20197;-84
2022/03/23 00:07:00;;;;;;;27.20;17.63;;;9.20;99.90;;;;;;4960631;28;20246;-86
2022/03/23 00:09:27;;;;;;;31.97;18.00;;;9.20;99.90;;;;;;4980571;28;20204;-86
2022/03/23 00:11:53;;;;;;;29.47;17.47;;;9.20;99.90;;;;;;4988379;28;20196;-86
2022/03/23 00:14:19;;;;;;;32.27;18.73;;;9.10;99.90;;;;;;4976843;28;20229;-86
2022/03/23 00:16:45;;;;;;;27.23;16.23;;;9.00;99.90;;;;;;4976115;28;20189;-85
2022/03/23 00:19:11;;;;;;;26.20;15.13;;;9.10;99.90;;;;;;4976234;28;20224;-85
2022/03/23 00:21:37;;;;;;;28.90;18.10;;;9.10;99.90;;;;;;4977062;28;20215;-85
2022/03/23 00:24:03;;;;;;;28.87;16.67;;;8.90;99.90;;;;;;4992709;28;20204;-81
2022/03/23 00:26:29;;;;;;;29.97;17.37;;;8.80;99.90;;;;;;4997047;28;20183;-80
2022/03/23 00:28:55;;;;;;;27.40;17.53;;;8.80;99.90;;;;;;4991717;28;20267;-85
2022/03/23 00:31:22;;;;;;;28.80;17.73;;;8.80;99.90;;;;;;4981482;28;20188;-85
2022/03/23 00:33:51;;;;;;;34.53;17.13;;;8.70;99.90;;;;;;4967524;28;20243;-85
2022/03/23 00:36:17;;;;;;;33.27;17.17;;;8.60;99.90;;;;;;4981118;28;20196;-85
2022/03/23 00:38:44;;;;;;;30.63;17.13;;;8.60;99.90;;;;;;4978757;28;20195;-85
2022/03/23 00:41:10;;;;;;;29.87;18.87;;;8.60;99.90;;;;;;4959560;28;20709;-84
2022/03/23 00:43:36;;;;;;;30.93;18.53;;;8.60;99.90;;;;;;4959686;28;20657;-83
2022/03/23 00:46:02;;;;;;;32.67;16.90;;;8.60;99.90;;;;;;4977695;28;20192;-85
2022/03/23 00:48:27;;;;;;;26.90;16.67;;;8.50;99.90;;;;;;4961102;28;20262;-85
2022/03/23 00:50:53;;;;;;;33.77;17.93;;;8.50;99.90;;;;;;4972487;28;20196;-85
2022/03/23 00:53:19;;;;;;;32.87;17.13;;;8.40;99.90;;;;;;4983582;28;20673;-85
2022/03/23 00:55:45;;;;;;;32.83;17.73;;;8.40;99.90;;;;;;4974972;28;20565;-85
2022/03/23 00:58:10;;;;;;;30.53;18.17;;;8.30;99.90;;;;;;4975599;28;20744;-85
2022/03/23 01:00:37;;;;;;;35.77;18.40;;;8.30;99.90;;;;;;4975029;28;20199;-84
2022/03/23 01:03:04;;;;;;;37.53;18.90;;;8.20;99.90;;;;;;4976138;28;20564;-85
2022/03/23 01:05:29;;;;;;;37.23;19.40;;;8.20;99.90;;;;;;4976544;28;20184;-85
2022/03/23 01:07:55;;;;;;;34.70;17.70;;;8.20;99.90;;;;;;4975075;28;20258;-85
2022/03/23 01:10:21;;;;;;;36.03;18.67;;;8.20;99.90;;;;;;4975031;28;20609;-82
2022/03/23 01:12:48;;;;;;;32.70;18.27;;;8.20;99.90;;;;;;4958949;28;20251;-84
2022/03/23 01:15:19;;;;;;;36.43;19.53;;;8.10;99.90;;;;;;4975682;28;20192;-83
2022/03/23 01:17:45;;;;;;;34.17;19.77;;;8.10;99.90;;;;;;4974989;28;20197;-84
2022/03/23 01:20:13;;;;;;;32.67;18.47;;;8.10;99.90;;;;;;4976248;28;20220;-85
2022/03/23 01:22:40;;;;;;;30.93;18.93;;;8.10;99.90;;;;;;4982029;28;20191;-84
2022/03/23 01:25:08;;;;;;;40.07;17.77;;;8.00;99.90;;;;;;4991508;28;20619;-84
2022/03/23 01:27:35;;;;;;;30.83;17.20;;;8.00;99.90;;;;;;4974693;28;20188;-84
2022/03/23 01:30:05;;;;;;;32.83;18.33;;;8.00;99.90;;;;;;4974804;28;20184;-84
2022/03/23 01:32:31;;;;;;;29.57;17.10;;;8.00;99.90;;;;;;4974864;28;20677;-84
2022/03/23 01:34:59;;;;;;;38.10;18.50;;;7.90;99.90;;;;;;4967152;28;20541;-84
2022/03/23 01:37:24;;;;;;;33.67;18.37;;;8.00;99.90;;;;;;4982943;28;20235;-84
2022/03/23 01:39:50;;;;;;;29.03;16.80;;;7.90;99.90;;;;;;4973403;28;20191;-84
2022/03/23 01:42:16;;;;;;;33.57;18.40;;;7.90;99.90;;;;;;4974626;28;20195;-84
2022/03/23 01:44:42;;;;;;;33.93;17.97;;;7.80;99.90;;;;;;4958077;28;20185;-84
2022/03/23 01:47:11;;;;;;;25.17;16.53;;;7.80;99.90;;;;;;4958422;28;20181;-84
2022/03/23 01:49:49;;;;;;;35.90;19.00;;;7.70;99.90;;;;;;4976926;28;20200;-83
2022/03/23 01:52:17;;;;;;;32.40;18.33;;;7.70;99.90;;;;;;4990443;28;20231;-84
2022/03/23 01:54:43;;;;;;;34.57;18.20;;;7.60;99.90;;;;;;4975842;28;20196;-84
2022/03/23 01:57:12;;;;;;;34.47;18.63;;;7.60;99.90;;;;;;4975213;28;20549;-84
2022/03/23 01:59:38;;;;;;;32.97;20.20;;;7.60;99.90;;;;;;4975581;28;20188;-83
2022/03/23 02:02:05;;;;;;;31.60;18.40;;;7.60;99.90;;;;;;4969085;28;20583;-84
2022/03/23 02:04:31;;;;;;;29.77;18.83;;;7.50;99.90;;;;;;4982467;28;20185;-84
2022/03/23 02:06:59;;;;;;;35.83;18.80;;;7.40;99.90;;;;;;4974022;28;20239;-84
2022/03/23 02:09:27;;;;;;;31.50;19.53;;;7.40;99.90;;;;;;4957743;28;20607;-84
2022/03/23 02:11:53;;;;;;;32.67;17.67;;;7.40;99.90;;;;;;4974056;28;20184;-83
2022/03/23 02:14:20;;;;;;;37.07;16.93;;;7.40;99.90;;;;;;4973597;28;20637;-83
2022/03/23 02:16:47;;;;;;;33.77;18.43;;;7.40;99.90;;;;;;4975320;28;20609;-83
2022/03/23 02:19:13;;;;;;;33.30;17.67;;;7.40;99.90;;;;;;4983235;28;20188;-84
2022/03/23 02:21:43;;;;;;;35.77;19.00;;;7.40;99.90;;;;;;4992113;28;20192;-84
2022/03/23 02:24:09;;;;;;;37.30;19.43;;;7.40;99.90;;;;;;4980173;28;20192;-83
2022/03/23 02:26:37;;;;;;;34.63;18.23;;;7.40;99.90;;;;;;4973364;28;20184;-84
2022/03/23 02:29:04;;;;;;;33.37;17.67;;;7.40;99.90;;;;;;4973278;28;20219;-83
2022/03/23 02:31:30;;;;;;;30.53;16.80;;;7.30;99.90;;;;;;4974835;28;20193;-84
2022/03/23 02:33:59;;;;;;;29.27;17.87;;;7.30;99.90;;;;;;4984716;28;20310;-84
2022/03/23 02:36:25;;;;;;;32.03;17.83;;;7.30;99.90;;;;;;4983624;28;20268;-84
2022/03/23 02:38:51;;;;;;;36.40;16.97;;;7.20;99.90;;;;;;4974183;28;20275;-83
2022/03/23 02:41:17;;;;;;;27.20;15.90;;;7.20;99.90;;;;;;4957864;28;20180;-83
2022/03/23 02:43:43;;;;;;;37.43;17.73;;;7.20;99.90;;;;;;4978739;28;20622;-83
2022/03/23 02:46:19;;;;;;;31.00;16.30;;;7.10;99.90;;;;;;4966425;28;20188;-83
2022/03/23 02:48:47;;;;;;;36.67;18.00;;;7.10;99.90;;;;;;4973207;28;20223;-83
2022/03/23 02:51:14;;;;;;;24.20;14.57;;;7.10;99.90;;;;;;4974065;28;20204;-83
2022/03/23 03:02:37;;;;;;;27.47;16.07;;;7.00;99.90;;;;;;4985898;28;20206;-83
2022/03/23 03:05:08;;;;;;;30.97;15.47;;;6.90;99.90;;;;;;4973887;28;20180;-82
2022/03/23 03:10:20;;;;;;;30.23;16.40;;;6.90;99.90;;;;;;4972999;28;20223;-83
2022/03/23 03:12:46;;;;;;;27.33;16.10;;;6.80;99.90;;;;;;4973198;28;20688;-83
2022/03/23 03:15:14;;;;;;;33.63;15.77;;;6.80;99.90;;;;;;4972799;28;20279;-83
2022/03/23 03:17:39;;;;;;;29.67;18.43;;;6.80;99.90;;;;;;4983212;28;20188;-82
2022/03/23 03:20:06;;;;;;;29.47;17.10;;;6.80;99.90;;;;;;4974449;28;20191;-83
2022/03/23 03:22:38;;;;;;;32.50;16.97;;;6.80;99.90;;;;;;4956697;28;20654;-83
2022/03/23 03:25:04;;;;;;;28.87;16.53;;;6.70;99.90;;;;;;4982951;28;20187;-78
2022/03/23 03:27:36;;;;;;;32.60;16.43;;;6.70;99.90;;;;;;4972926;28;20196;-82
2022/03/23 03:30:07;;;;;;;34.20;16.60;;;6.70;99.90;;;;;;4974746;28;20184;-83
2022/03/23 03:32:33;;;;;;;27.33;16.73;;;6.70;99.90;;;;;;4973166;28;20304;-83
2022/03/23 03:34:58;;;;;;;30.70;16.07;;;6.70;99.90;;;;;;4973179;28;20272;-82
2022/03/23 03:37:24;;;;;;;31.17;14.60;;;6.70;99.90;;;;;;4972541;28;20189;-83
2022/03/23 03:39:50;;;;;;;29.47;16.97;;;6.60;99.90;;;;;;4974323;28;20223;-82
2022/03/23 03:42:17;;;;;;;28.10;15.83;;;6.60;99.90;;;;;;4972236;28;20273;-83
2022/03/23 03:44:44;;;;;;;30.83;15.90;;;6.50;99.90;;;;;;4979466;28;20277;-82
2022/03/23 03:47:10;;;;;;;25.53;15.43;;;6.60;99.90;;;;;;4972614;28;20220;-82
2022/03/23 03:49:39;;;;;;;27.07;15.27;;;6.50;99.90;;;;;;4975551;28;20195;-82
2022/03/23 03:52:05;;;;;;;28.27;16.13;;;6.50;99.90;;;;;;4973129;28;20185;-82
2022/03/23 03:54:31;;;;;;;30.20;15.13;;;6.50;99.90;;;;;;4971993;28;20232;-82
2022/03/23 03:56:57;;;;;;;30.13;16.30;;;6.40;99.90;;;;;;4956325;28;20192;-82
2022/03/23 03:59:23;;;;;;;28.40;16.07;;;6.40;99.90;;;;;;4979558;28;20188;-83
2022/03/23 04:01:50;;;;;;;28.37;16.10;;;6.50;99.90;;;;;;4995142;28;20688;-79
2022/03/23 04:04:16;;;;;;;31.80;16.53;;;6.40;99.90;;;;;;4981881;28;20653;-82
2022/03/23 04:06:41;;;;;;;27.90;16.33;;;6.40;99.90;;;;;;4977276;28;20192;-82
2022/03/23 04:09:07;;;;;;;25.17;14.73;;;6.40;99.90;;;;;;4975758;28;20205;-82
2022/03/23 04:11:32;;;;;;;34.40;17.30;;;6.40;99.90;;;;;;4977477;28;20226;-82
2022/03/23 04:13:58;;;;;;;31.80;16.43;;;6.40;99.90;;;;;;4987602;28;20718;-82
2022/03/23 04:16:24;;;;;;;30.17;15.13;;;6.40;99.90;;;;;;4983809;28;20295;-82
2022/03/23 04:18:49;;;;;;;28.47;16.30;;;6.30;99.90;;;;;;4975878;28;20894;-81
2022/03/23 04:21:15;;;;;;;34.53;16.47;;;6.30;99.90;;;;;;4975725;28;20588;-82
2022/03/23 04:23:41;;;;;;;25.80;15.70;;;6.40;99.90;;;;;;4959468;28;20595;-82
2022/03/23 04:26:07;;;;;;;30.37;17.10;;;6.40;99.90;;;;;;4959445;28;20287;-81
2022/03/23 04:28:32;;;;;;;28.73;17.90;;;6.30;99.90;;;;;;4975584;28;20193;-81
2022/03/23 04:30:59;;;;;;;31.80;15.70;;;6.20;99.90;;;;;;4959710;28;20197;-82
2022/03/23 04:33:25;;;;;;;38.83;18.53;;;6.20;99.90;;;;;;4975116;28;20220;-80
2022/03/23 04:35:51;;;;;;;28.03;15.87;;;6.20;99.90;;;;;;4976691;28;20280;-82
2022/03/23 04:38:16;;;;;;;30.47;16.83;;;6.20;99.90;;;;;;4975163;28;20189;-81
2022/03/23 04:40:42;;;;;;;31.30;16.10;;;6.30;99.90;;;;;;4959152;28;20228;-81
2022/03/23 04:43:08;;;;;;;27.53;16.47;;;6.40;99.90;;;;;;4985559;28;20207;-81
2022/03/23 04:45:33;;;;;;;28.47;16.87;;;6.30;99.90;;;;;;4979020;28;20242;-81
2022/03/23 04:47:59;;;;;;;30.93;17.10;;;6.30;99.90;;;;;;4985411;28;20181;-81
2022/03/23 04:50:25;;;;;;;28.03;16.63;;;6.20;99.90;;;;;;4976214;28;20185;-75
2022/03/23 04:52:52;;;;;;;33.93;18.47;;;6.10;99.90;;;;;;4976614;28;20208;-81
2022/03/23 04:55:18;;;;;;;27.40;15.90;;;6.10;99.90;;;;;;4958821;28;20339;-81
2022/03/23 04:57:45;;;;;;;36.10;16.53;;;6.00;99.90;;;;;;4990689;28;20275;-81
2022/03/23 05:00:13;;;;;;;33.90;17.53;;;6.00;99.90;;;;;;4991945;28;20223;-81
2022/03/23 05:02:46;;;;;;;33.67;20.07;;;5.90;99.90;;;;;;4978105;28;20216;-81
2022/03/23 05:05:12;;;;;;;44.80;18.10;;;5.90;99.90;;;;;;4976362;28;20195;-81
2022/03/23 05:07:38;;;;;;;25.70;16.97;;;5.90;99.90;;;;;;4975767;28;20200;-81
2022/03/23 05:10:05;;;;;;;33.17;18.17;;;5.90;99.90;;;;;;4974800;28;20254;-81
2022/03/23 05:12:30;;;;;;;28.90;18.37;;;5.90;99.90;;;;;;4978865;28;20307;-80
2022/03/23 05:14:57;;;;;;;34.20;18.80;;;5.90;99.90;;;;;;4987903;28;20280;-81
2022/03/23 05:17:22;;;;;;;34.60;17.80;;;5.80;99.90;;;;;;4958363;28;20223;-81
2022/03/23 05:19:48;;;;;;;35.93;19.93;;;5.70;99.90;;;;;;4975757;28;20673;-81
2022/03/23 05:22:14;;;;;;;27.23;16.77;;;5.70;99.90;;;;;;4974325;28;20570;-81
2022/03/23 05:24:40;;;;;;;28.00;17.07;;;5.80;99.90;;;;;;4973986;28;20280;-81
2022/03/23 05:27:08;;;;;;;38.73;18.50;;;5.80;99.90;;;;;;4974516;28;20598;-81
2022/03/23 05:29:35;;;;;;;27.53;17.50;;;5.80;99.90;;;;;;4975685;28;20562;-81
2022/03/23 05:32:00;;;;;;;31.10;18.80;;;5.80;99.90;;;;;;4974694;28;20193;-81
2022/03/23 05:34:26;;;;;;;40.50;19.87;;;5.80;99.90;;;;;;4974214;28;20231;-80
2022/03/23 05:36:51;;;;;;;33.23;17.60;;;5.70;99.90;;;;;;4975809;28;20201;-80
2022/03/23 05:39:17;;;;;;;31.07;18.57;;;5.70;99.90;;;;;;4975498;28;20283;-81
2022/03/23 05:41:43;;;;;;;34.77;20.47;;;5.70;99.90;;;;;;4958023;28;20555;-80
2022/03/23 05:44:08;;;;;;;35.10;17.43;;;5.70;99.90;;;;;;4980869;28;20203;-81
2022/03/23 05:46:34;;;;;;;28.43;18.53;;;5.70;99.90;;;;;;4974164;28;20638;-81
2022/03/23 05:49:00;;;;;;;31.87;18.43;;;5.80;99.90;;;;;;4975309;28;20220;-81
2022/03/23 05:51:26;;;;;;;32.17;18.73;;;5.80;99.90;;;;;;4974392;28;20531;-81
2022/03/23 05:53:51;;;;;;;31.23;18.03;;;5.80;99.90;;;;;;4973843;28;20216;-80
2022/03/23 05:56:17;;;;;;;38.87;18.33;;;5.80;99.90;;;;;;4975213;28;20617;-80
2022/03/23 05:58:43;;;;;;;32.53;18.47;;;5.80;99.90;;;;;;4973855;28;20260;-81
2022/03/23 06:01:12;;;;;;;29.53;17.93;;;5.90;99.90;;;;;;4974111;28;20188;-81
2022/03/23 06:03:41;;;;;;;34.80;18.37;;;5.90;99.90;;;;;;4975338;28;20200;-80
2022/03/23 06:06:06;;;;;;;36.67;19.13;;;5.90;99.90;;;;;;4975267;28;20181;-81
2022/03/23 06:08:32;;;;;;;29.80;18.40;;;6.00;99.90;;;;;;4941620;28;20562;-81
2022/03/23 06:10:58;;;;;;;34.80;20.17;;;6.00;99.90;;;;;;4974074;28;20673;-81
2022/03/23 06:13:24;;;;;;;34.90;19.77;;;6.00;99.90;;;;;;4973695;28;20645;-81
2022/03/23 06:15:50;;;;;;;37.53;18.57;;;6.00;99.90;;;;;;4974034;28;20192;-81
2022/03/23 06:18:15;;;;;;;30.47;18.30;;;6.10;99.90;;;;;;4973271;28;20587;-80
2022/03/23 06:20:41;;;;;;;29.37;17.17;;;6.10;99.90;;;;;;4948125;28;20183;-81
2022/03/23 06:23:07;;;;;;;31.50;19.83;;;6.10;99.90;;;;;;4964925;28;20345;-82
2022/03/23 06:25:33;;;;;;;35.17;17.90;;;6.20;99.90;;;;;;4975045;28;20200;-81
2022/03/23 06:27:58;;;;;;;32.33;16.90;;;6.30;99.90;;;;;;4941032;28;20196;-81
2022/03/23 06:30:24;;;;;;;39.30;20.60;;;6.40;99.90;;;;;;4974887;28;20189;-81
2022/03/23 06:32:50;;;;;;;32.00;17.93;;;6.40;99.90;;;;;;4991355;28;20216;-81
2022/03/23 06:35:16;;;;;;;37.00;18.73;;;6.50;99.90;;;;;;4971911;28;20193;-79
2022/03/23 06:37:42;;;;;;;27.40;17.23;;;6.60;99.90;;;;;;4957474;28;20193;-81
2022/03/23 06:40:08;;;;;;;33.03;19.57;;;6.70;99.90;;;;;;4941707;28;20618;-79
2022/03/23 06:42:34;;;;;;;28.40;17.23;;;6.70;99.90;;;;;;4957085;28;20674;-81
2022/03/23 06:45:02;;;;;;;33.80;19.07;;;6.80;99.90;;;;;;4980351;28;20192;-81
2022/03/23 06:47:28;;;;;;;36.37;18.43;;;6.90;99.90;;;;;;4967047;28;20576;-80
2022/03/23 06:49:54;;;;;;;32.37;19.10;;;7.00;99.90;;;;;;4979139;28;20614;-82
2022/03/23 06:52:22;;;;;;;37.63;18.27;;;7.10;99.90;;;;;;4975105;28;20215;-82
2022/03/23 06:54:49;;;;;;;34.47;19.70;;;7.20;99.90;;;;;;4978813;28;20668;-82
2022/03/23 06:57:14;;;;;;;33.37;18.83;;;7.30;99.90;;;;;;4974364;28;20664;-82
2022/03/23 06:59:40;;;;;;;33.67;20.27;;;7.30;99.90;;;;;;4964842;28;20192;-81
2022/03/23 07:02:08;;;;;;;32.10;18.93;;;7.30;99.90;;;;;;4992032;28;20180;-77
2022/03/23 07:04:34;;;;;;;32.33;18.80;;;7.30;99.90;;;;;;4973606;28;20203;-82
2022/03/23 07:06:59;;;;;;;38.37;20.13;;;7.40;99.90;;;;;;4957388;28;20177;-82
2022/03/23 07:09:31;;;;;;;36.33;21.17;;;7.50;99.90;;;;;;4991379;28;20199;-83
2022/03/23 07:12:02;;;;;;;35.60;22.07;;;7.70;99.90;;;;;;4976655;28;20279;-82
2022/03/23 07:14:29;;;;;;;38.77;20.63;;;7.80;99.90;;;;;;4973041;28;20220;-82
2022/03/23 07:16:55;;;;;;;34.60;19.83;;;8.00;99.90;;;;;;4974290;28;20564;-80
2022/03/23 07:19:22;;;;;;;40.50;17.87;;;8.10;99.90;;;;;;4960997;28;20184;-82
2022/03/23 07:21:48;;;;;;;43.93;21.63;;;8.30;99.90;;;;;;4983148;28;20196;-82
2022/03/23 07:24:14;;;;;;;43.47;22.33;;;8.40;99.90;;;;;;4978353;28;20626;-83
2022/03/23 07:26:39;;;;;;;42.87;20.43;;;9.10;99.90;;;;;;4977877;28;20193;-84
2022/03/23 07:29:05;;;;;;;32.80;19.50;;;10.70;99.90;;;;;;4974489;28;20212;-82
2022/03/23 07:31:31;;;;;;;38.20;19.27;;;12.30;99.90;;;;;;4984936;28;20192;-85
2022/03/23 07:33:59;;;;;;;40.25;19.63;;;13.70;99.90;;;;;;4973026;28;20220;-85
2022/03/23 07:36:25;;;;;;;37.85;19.85;;;14.80;99.90;;;;;;4978392;28;20199;-86
2022/03/23 07:38:52;;;;;;;37.03;22.17;;;15.90;99.90;;;;;;4978149;28;20193;-86
2022/03/23 07:41:18;;;;;;;37.35;21.35;;;16.30;99.90;;;;;;4977634;28;20191;-87
2022/03/23 07:43:43;;;;;;;38.88;23.08;;;17.10;99.90;;;;;;4977481;28;20196;-87
2022/03/23 07:46:09;;;;;;;40.28;21.55;;;17.30;99.90;;;;;;4978299;28;20193;-87
2022/03/23 07:48:35;;;;;;;35.05;23.85;;;17.90;99.90;;;;;;4977401;28;20212;-88
2022/03/23 07:51:01;;;;;;;37.35;20.05;;;18.50;99.90;;;;;;4980648;28;20189;-87
2022/03/23 07:53:27;;;;;;;42.45;21.70;;;19.30;99.90;;;;;;4965308;28;20204;-86
2022/03/23 07:55:52;;;;;;;36.10;19.73;;;19.30;99.90;;;;;;4980859;28;20196;-88
2022/03/23 07:58:18;;;;;;;37.08;22.58;;;19.70;99.90;;;;;;4986351;28;20180;-79
2022/03/23 08:00:45;;;;;;;34.38;21.08;;;20.00;99.90;;;;;;4991248;28;20215;-79
2022/03/23 08:03:11;;;;;;;36.33;20.75;;;20.50;99.90;;;;;;4986295;28;20218;-80
2022/03/23 08:05:42;;;;;;;42.88;22.00;;;20.90;99.90;;;;;;4961895;28;20287;-79
2022/03/23 08:08:09;;;;;;;38.35;22.30;;;21.30;99.90;;;;;;4994791;28;20199;-79
2022/03/23 08:10:42;;;;;;;42.95;23.38;;;21.60;99.90;;;;;;4983524;28;20519;-73
2022/03/23 08:13:12;;;;;;;44.15;21.55;;;21.90;99.90;;;;;;4977079;28;20239;-73
2022/03/23 08:15:39;;;;;;;39.50;22.55;;;22.20;99.90;;;;;;4976030;28;20172;-81
2022/03/23 08:18:05;;;;;;;38.17;22.58;;;22.20;99.90;;;;;;4977112;28;20552;-83
2022/03/23 08:20:37;;;;;;;42.35;22.35;;;22.40;99.90;;;;;;4978556;28;20187;-81
2022/03/23 08:23:09;;;;;;;33.83;22.63;;;22.80;99.90;;;;;;4990379;28;20200;-88
2022/03/23 08:25:41;;;;;;;43.30;23.23;;;23.40;99.90;;;;;;4983499;28;20211;-81
2022/03/23 08:28:07;;;;;;;41.55;22.23;;;23.60;99.90;;;;;;4983293;28;20602;-78
2022/03/23 08:30:33;;;;;;;42.25;23.52;;;23.30;99.90;;;;;;4975461;28;20196;-82
2022/03/23 08:32:59;;;;;;;48.05;25.80;;;23.50;99.90;;;;;;4990295;28;20303;-78
2022/03/23 08:35:25;;;;;;;37.45;21.98;;;23.30;99.90;;;;;;4987218;28;20219;-85
2022/03/23 08:37:51;;;;;;;39.70;22.75;;;23.80;99.90;;;;;;4984777;28;20645;-80
2022/03/23 08:40:17;;;;;;;38.65;24.40;;;23.70;99.90;;;;;;4996420;28;20188;-82
2022/03/23 08:42:44;;;;;;;46.95;24.50;;;24.00;99.90;;;;;;4975416;28;20602;-81
2022/03/23 08:45:10;;;;;;;43.22;24.63;;;24.00;99.90;;;;;;4976232;28;20193;-82
2022/03/23 08:47:38;;;;;;;42.40;23.05;;;23.10;99.90;;;;;;4976298;28;20184;-80
2022/03/23 08:50:07;;;;;;;47.42;24.90;;;21.90;99.90;;;;;;4976655;28;20211;-81
2022/03/23 08:52:34;;;;;;;47.80;26.25;;;20.80;99.90;;;;;;4975958;28;20621;-80
2022/03/23 08:55:01;;;;;;;46.45;25.92;;;20.10;99.90;;;;;;4994946;28;20262;-81
2022/03/23 08:57:27;;;;;;;49.10;26.63;;;19.10;99.90;;;;;;4976225;28;20700;-88
2022/03/23 08:59:52;;;;;;;41.22;25.70;;;18.30;99.90;;;;;;4976154;28;20279;-87
2022/03/23 09:02:18;;;;;;;56.65;26.42;;;17.80;99.90;;;;;;4977734;28;20184;-78
2022/03/23 09:04:44;;;;;;;43.55;24.15;;;17.40;99.90;;;;;;4976992;28;20664;-84
2022/03/23 09:07:09;;;;;;;52.38;25.60;;;17.20;99.90;;;;;;4978064;28;20335;-83
2022/03/23 09:09:35;;;;;;;50.10;24.58;;;17.00;99.90;;;;;;4975562;28;20219;-81
2022/03/23 09:12:01;;;;;;;47.85;26.38;;;16.90;99.90;;;;;;4964450;28;20731;-81
2022/03/23 09:14:26;;;;;;;51.40;26.20;;;16.90;99.90;;;;;;4982008;28;20583;-84
2022/03/23 09:16:52;;;;;;;50.25;25.75;;;16.70;99.90;;;;;;4975272;28;20284;-87
2022/03/23 09:19:20;;;;;;;50.63;25.98;;;16.40;99.90;;;;;;4959512;28;20219;-82
2022/03/23 09:21:50;;;;;;;50.67;25.27;;;16.40;99.90;;;;;;4974841;28;20224;-86
2022/03/23 09:24:19;;;;;;;56.65;23.08;;;16.70;99.90;;;;;;4977730;28;20180;-85
2022/03/23 09:26:46;;;;;;;43.83;23.67;;;16.90;99.90;;;;;;4960134;28;20183;-86
2022/03/23 09:29:12;;;;;;;51.38;27.25;;;16.90;99.90;;;;;;4976512;28;20180;-79
2022/03/23 09:31:38;;;;;;;47.55;23.98;;;16.80;99.90;;;;;;4974298;28;20223;-84
2022/03/23 09:34:05;;;;;;;50.47;27.17;;;16.80;99.90;;;;;;4974379;28;20217;-79
2022/03/23 09:39:16;;;;;;;53.15;26.38;;;16.70;99.90;;;;;;4976118;28;20208;-82
2022/03/23 09:41:44;;;;;;;51.70;24.30;;;16.80;99.90;;;;;;4975717;28;20248;-79
2022/03/23 09:44:10;;;;;;;43.88;22.40;;;16.80;99.90;;;;;;4966855;28;20200;-79
2022/03/23 09:46:36;;;;;;;39.88;21.92;;;17.10;99.90;;;;;;4958793;28;20193;-79
2022/03/23 09:49:02;;;;;;;44.60;22.88;;;17.40;99.90;;;;;;4974655;28;20646;-80
2022/03/23 09:51:32;;;;;;;38.70;23.80;;;17.50;99.90;;;;;;4974491;28;20224;-80
2022/03/23 09:53:59;;;;;;;51.47;24.15;;;17.40;99.90;;;;;;4974002;28;20239;-80
2022/03/23 09:56:24;;;;;;;45.08;22.45;;;17.30;99.90;;;;;;4957801;28;20197;-75
2022/03/23 09:58:50;;;;;;;36.15;21.50;;;17.20;99.90;;;;;;4977632;28;20196;-71
2022/03/23 10:01:28;;;;;;;63.75;24.08;;;17.30;99.90;;;;;;4983430;28;20254;-69
2022/03/23 10:04:12;;;;;;;45.90;22.42;;;17.20;99.90;;;;;;4976761;28;20235;-69
2022/03/23 10:07:02;;;;;;;43.08;22.55;;;17.40;99.90;;;;;;4986899;28;20299;-69
2022/03/23 10:09:40;;;;;;;51.28;25.02;;;17.70;99.90;;;;;;4977524;28;20216;-69
2022/03/23 10:12:47;;;;;;;47.78;24.88;;;17.70;99.90;;;;;;4973882;28;20180;-69
2022/03/23 10:15:50;;;;;;;46.60;25.25;;;17.50;99.90;;;;;;4974440;28;20258;-69
2022/03/23 10:18:21;;;;;;;42.53;24.77;;;17.70;99.90;;;;;;4978651;28;20842;-69
2022/03/23 10:20:47;;;;;;;38.45;22.17;;;18.00;99.90;;;;;;4974520;28;20181;-69
2022/03/23 10:23:13;;;;;;;36.53;20.92;;;17.90;99.90;;;;;;4981223;28;20207;-69
2022/03/23 10:25:40;;;;;;;37.28;23.10;;;17.80;99.90;;;;;;4986503;28;20528;-69
2022/03/23 10:28:13;;;;;;;37.28;21.42;;;18.00;99.90;;;;;;4978976;28;20234;-70
2022/03/23 10:30:41;;;;;;;35.47;20.30;;;18.10;99.90;;;;;;4974296;28;20181;-70
2022/03/23 10:33:24;;;;;;;40.72;22.23;;;18.00;99.90;;;;;;4978695;28;20214;-70
2022/03/23 10:35:50;;;;;;;38.75;21.08;;;17.90;99.90;;;;;;4989432;28;20276;-70
2022/03/23 10:38:25;;;;;;;38.85;23.17;;;18.10;99.90;;;;;;4974461;28;20193;-70
2022/03/23 10:40:53;;;;;;;41.42;21.50;;;18.30;99.90;;;;;;4974897;28;20288;-70
2022/03/23 10:43:34;;;;;;;40.28;21.83;;;18.40;99.90;;;;;;4973391;28;20212;-70
2022/03/23 10:46:10;;;;;;;41.85;21.58;;;18.30;99.90;;;;;;4974638;28;20185;-71
2022/03/23 10:48:36;;;;;;;41.47;23.13;;;18.20;99.90;;;;;;4985857;28;20604;-70
2022/03/23 10:51:03;;;;;;;46.85;22.52;;;18.10;99.90;;;;;;4973440;28;20275;-68
2022/03/23 10:53:36;;;;;;;43.90;24.42;;;18.20;99.90;;;;;;4973280;28;20303;-71
2022/03/23 10:56:03;;;;;;;52.28;23.83;;;18.20;99.90;;;;;;4974232;28;20196;-70
2022/03/23 10:58:29;;;;;;;45.90;23.52;;;18.10;99.90;;;;;;4980453;28;20195;-70
2022/03/23 11:01:09;;;;;;;48.08;23.77;;;18.10;99.90;;;;;;4977566;28;20196;-70
2022/03/23 11:03:39;;;;;;;42.17;22.42;;;18.30;99.90;;;;;;4985830;28;20279;-70
2022/03/23 11:06:07;;;;;;;43.08;24.83;;;18.40;99.90;;;;;;4986046;28;20180;-72
2022/03/23 11:08:33;;;;;;;46.78;25.27;;;18.40;99.90;;;;;;4991349;28;20560;-70
2022/03/23 11:16:37;;;;;;;41.92;23.85;;;18.40;99.90;;;;;;4992385;28;20266;-70
2022/03/23 11:19:12;;;;;;;42.90;24.25;;;18.50;99.90;;;;;;4978053;28;20200;-68
2022/03/23 11:21:58;;;;;;;45.70;24.73;;;18.50;99.90;;;;;;4974536;28;20672;-68
2022/03/23 11:24:26;;;;;;;42.40;22.48;;;18.60;99.90;;;;;;4974137;28;20678;-69
2022/03/23 11:26:53;;;;;;;39.60;22.85;;;18.60;99.90;;;;;;4973238;28;20685;-69
2022/03/23 11:29:19;;;;;;;47.20;23.55;;;18.70;99.90;;;;;;4972776;28;20220;-68
2022/03/23 11:31:46;;;;;;;39.45;21.85;;;18.70;99.90;;;;;;4974004;28;20223;-68
2022/03/23 11:34:13;;;;;;;44.10;24.40;;;18.90;99.90;;;;;;4973761;28;20205;-68
2022/03/23 11:36:41;;;;;;;47.50;24.50;;;18.90;99.90;;;;;;4974048;28;20600;-70
2022/03/23 11:39:07;;;;;;;45.53;23.45;;;18.90;99.90;;;;;;4973986;28;20688;-69
2022/03/23 11:41:34;;;;;;;42.90;22.67;;;19.00;99.90;;;;;;4972488;28;20188;-69
2022/03/23 11:43:59;;;;;;;44.63;22.02;;;18.80;99.90;;;;;;4956961;28;20748;-69
2022/03/23 11:46:26;;;;;;;35.15;21.45;;;18.50;99.90;;;;;;4956400;28;20280;-70
2022/03/23 11:49:14;;;;;;;35.17;20.55;;;18.50;99.90;;;;;;4972555;28;20189;-70
2022/03/23 11:52:00;;;;;;;37.72;20.70;;;18.60;99.90;;;;;;4972636;28;20223;-70
2022/03/23 11:57:54;;;;;;;37.53;19.83;;;18.70;99.90;;;;;;4978428;28;20180;-70
2022/03/23 12:00:27;;;;;;;41.25;21.45;;;18.80;99.90;;;;;;4991863;28;20188;-69
2022/03/23 12:02:57;;;;;;;40.95;20.85;;;18.90;99.90;;;;;;4984598;28;20558;-69
2022/03/23 12:05:27;;;;;;;35.75;20.83;;;18.90;99.90;;;;;;4973922;28;20188;-71
2022/03/23 12:07:53;;;;;;;38.33;20.95;;;18.90;99.90;;;;;;4973880;28;20335;-69
2022/03/23 12:10:21;;;;;;;33.72;17.58;;;18.90;99.90;;;;;;4972036;28;20680;-69
2022/03/23 12:12:47;;;;;;;38.45;19.30;;;19.00;99.90;;;;;;4972517;28;20816;-70
2022/03/23 12:15:24;;;;;;;35.05;20.08;;;19.00;99.90;;;;;;4963762;28;20283;-69
2022/03/23 12:17:56;;;;;;;36.67;19.77;;;19.10;99.90;;;;;;4982489;28;20192;-70
2022/03/23 12:20:29;;;;;;;40.65;21.52;;;19.00;99.90;;;;;;4975595;28;20181;-70
2022/03/23 12:23:08;;;;;;;42.75;22.23;;;18.90;99.90;;;;;;4977015;28;20192;-69
2022/03/23 12:26:03;;;;;;;33.75;19.50;;;18.80;99.90;;;;;;4976917;28;20219;-70
2022/03/23 12:28:43;;;;;;;34.42;17.85;;;18.80;99.90;;;;;;4976548;28;20275;-68
2022/03/23 12:31:11;;;;;;;31.15;18.00;;;19.00;99.90;;;;;;4978448;28;20188;-68
2022/03/23 12:33:57;;;;;;;35.58;15.73;;;19.00;99.90;;;;;;4994296;28;20299;-69
2022/03/23 12:37:19;;;;;;;27.40;15.43;;;19.00;99.90;;;;;;4976845;28;20267;-70
2022/03/23 12:39:37;;;;;;;36.97;16.58;;;19.00;99.90;;;;;;4972345;28;20196;-68
2022/03/23 12:42:11;;;;;;;27.70;13.88;;;19.00;99.90;;;;;;4976493;28;20242;-68
2022/03/23 12:44:41;;;;;;;24.73;13.23;;;19.00;99.90;;;;;;4983472;28;20297;-68
2022/03/23 12:47:12;;;;;;;23.92;13.25;;;19.00;99.90;;;;;;4993952;28;20183;-68
2022/03/23 12:58:04;;;;;;;24.98;13.40;;;18.70;99.90;;;;;;4982051;28;20280;-68
2022/03/23 13:00:33;;;;;;;21.73;12.65;;;18.70;99.90;;;;;;4975450;28;20279;-68
2022/03/23 13:03:08;;;;;;;25.42;13.27;;;18.70;99.90;;;;;;4976004;28;20189;-69
2022/03/23 13:06:00;;;;;;;25.40;12.57;;;18.80;99.90;;;;;;4982540;28;20291;-69
2022/03/23 13:08:38;;;;;;;33.40;13.43;;;18.90;99.90;;;;;;4966296;28;20205;-69
2022/03/23 13:11:08;;;;;;;23.40;12.85;;;19.00;99.90;;;;;;4983259;28;20295;-69